Time;durP1;ratioP1;P1;durP2;ratioP2;P2;SDS_P1;SDS_P2;PMS_P1;PMS_P2;Temp;Humidity;BMP_temperature;BMP_pressure;BME280_temperature;BME280_humidity;BME280_pressure;Samples;Min_cycle;Max_cycle;Signal;HPM_P1;HPM_P2
2021/04/04 00:00:28;;;;;;;10.50;3.30;;;;;;;5.49;100.00;103087.62;1887766;76;26837;-74
2021/04/04 00:02:58;;;;;;;9.27;2.20;;;;;;;5.52;100.00;103083.64;1887632;76;26648;-74
2021/04/04 00:05:28;;;;;;;8.93;3.53;;;;;;;5.50;100.00;103083.82;1887763;76;26191;-74
2021/04/04 00:07:58;;;;;;;10.53;3.80;;;;;;;5.35;100.00;103084.39;1887630;73;26241;-74
2021/04/04 00:10:28;;;;;;;13.53;2.57;;;;;;;5.21;100.00;103081.19;1887878;76;26222;-74
2021/04/04 00:12:57;;;;;;;8.00;2.80;;;;;;;5.38;100.00;103077.98;1887671;76;26188;-74
2021/04/04 00:15:27;;;;;;;10.40;2.50;;;;;;;5.47;100.00;103074.05;1887697;76;26605;-74
2021/04/04 00:17:57;;;;;;;8.43;2.80;;;;;;;5.43;100.00;103076.02;1887762;76;26290;-74
2021/04/04 00:20:27;;;;;;;9.87;3.30;;;;;;;5.30;100.00;103071.23;1887755;76;26318;-74
2021/04/04 00:22:57;;;;;;;10.33;2.70;;;;;;;5.29;100.00;103073.65;1887761;76;26177;-74
2021/04/04 00:25:27;;;;;;;9.73;3.20;;;;;;;5.28;100.00;103067.80;1887722;76;26315;-74
2021/04/04 00:27:56;;;;;;;9.60;3.00;;;;;;;5.11;100.00;103062.22;1875988;76;26243;-75
2021/04/04 00:30:27;;;;;;;9.73;3.27;;;;;;;5.08;100.00;103062.61;1889068;76;26189;-74
2021/04/04 00:32:58;;;;;;;9.50;3.13;;;;;;;5.04;100.00;103059.92;1875143;76;26176;-75
2021/04/04 00:35:29;;;;;;;10.33;2.83;;;;;;;5.12;100.00;103059.80;1894302;76;26655;-74
2021/04/04 00:37:58;;;;;;;6.17;3.20;;;;;;;5.12;100.00;103061.17;1887879;76;26294;-75
2021/04/04 00:40:31;;;;;;;10.03;2.23;;;;;;;5.00;100.00;103064.11;1887621;76;26281;-75
2021/04/04 00:43:02;;;;;;;9.37;2.70;;;;;;;5.07;100.00;103060.90;1887700;76;26262;-75
2021/04/04 00:45:34;;;;;;;8.43;2.80;;;;;;;4.97;100.00;103057.08;1887638;76;26271;-74
2021/04/04 00:48:07;;;;;;;12.17;3.67;;;;;;;4.97;100.00;103055.70;1887662;76;26259;-75
2021/04/04 00:50:40;;;;;;;9.70;3.20;;;;;;;4.89;100.00;103060.47;1887715;76;26371;-74
2021/04/04 00:53:10;;;;;;;6.60;2.77;;;;;;;4.94;100.00;103053.86;1887662;76;26696;-74
2021/04/04 00:55:40;;;;;;;6.73;2.70;;;;;;;4.83;100.00;103062.64;1887666;76;26185;-74
2021/04/04 00:58:11;;;;;;;10.37;2.93;;;;;;;4.77;100.00;103067.52;1887514;76;26170;-74
2021/04/04 01:00:41;;;;;;;8.20;2.30;;;;;;;4.78;100.00;103061.84;1887517;76;26653;-74
2021/04/04 01:03:12;;;;;;;6.47;2.90;;;;;;;4.72;100.00;103061.73;1887487;76;26737;-74
2021/04/04 01:05:44;;;;;;;11.63;3.50;;;;;;;4.60;100.00;103064.14;1887514;76;26720;-72
2021/04/04 01:08:14;;;;;;;8.07;2.93;;;;;;;4.52;100.00;103061.49;1887589;73;26692;-75
2021/04/04 01:10:46;;;;;;;10.43;2.90;;;;;;;4.46;100.00;103069.12;1887649;76;26187;-74
2021/04/04 01:13:23;;;;;;;8.10;3.13;;;;;;;4.40;100.00;103069.39;1887684;76;26321;-75
2021/04/04 01:15:57;;;;;;;9.07;3.53;;;;;;;4.31;100.00;103066.91;1887573;76;26613;-75
2021/04/04 01:18:31;;;;;;;9.53;3.60;;;;;;;4.23;100.00;103056.86;1887316;76;26223;-75
2021/04/04 01:21:04;;;;;;;11.13;3.93;;;;;;;4.25;100.00;103063.53;1887437;76;26279;-75
2021/04/04 01:24:00;;;;;;;7.80;3.27;;;;;;;4.21;100.00;103060.30;1887580;76;26189;-75
2021/04/04 01:26:38;;;;;;;10.20;3.63;;;;;;;4.08;100.00;103062.86;1815878;78;26202;-75
2021/04/04 01:29:11;;;;;;;12.63;3.77;;;;;;;4.28;100.00;103054.92;1845809;77;26196;-74
2021/04/04 01:31:43;;;;;;;11.47;3.23;;;;;;;4.13;100.00;103050.26;1814054;79;26220;-75
2021/04/04 01:34:16;;;;;;;13.03;3.80;;;;;;;4.18;100.00;103055.20;1845775;78;26232;-74
2021/04/04 01:36:48;;;;;;;11.80;3.57;;;;;;;4.26;100.00;103056.47;1813990;79;26267;-74
2021/04/04 01:39:20;;;;;;;6.43;3.47;;;;;;;4.25;100.00;103053.91;1845787;78;26719;-76
2021/04/04 01:41:52;;;;;;;12.60;3.63;;;;;;;4.16;100.00;103053.66;1813934;79;26387;-76
2021/04/04 01:44:24;;;;;;;12.47;3.60;;;;;;;4.20;100.00;103053.61;1845815;78;26216;-76
2021/04/04 01:46:57;;;;;;;10.50;3.67;;;;;;;4.09;100.00;103048.07;1813951;79;26285;-76
2021/04/04 01:49:28;;;;;;;10.97;3.90;;;;;;;4.10;100.00;103047.89;1845762;78;26372;-76
2021/04/04 01:52:00;;;;;;;11.47;3.63;;;;;;;4.07;100.00;103044.64;1813951;79;26207;-75
2021/04/04 01:54:31;;;;;;;10.43;3.10;;;;;;;4.16;100.00;103044.03;1845823;78;26701;-75
2021/04/04 01:57:02;;;;;;;10.73;3.63;;;;;;;4.07;100.00;103044.13;1874552;76;26197;-75
2021/04/04 01:59:33;;;;;;;10.87;3.73;;;;;;;3.99;100.00;103042.84;1887511;76;26316;-75
2021/04/04 02:02:05;;;;;;;9.03;3.93;;;;;;;4.07;100.00;103044.64;1887565;76;26344;-75
2021/04/04 02:04:37;;;;;;;8.90;3.70;;;;;;;3.96;100.00;103046.50;1887584;76;26204;-75
2021/04/04 02:07:07;;;;;;;10.63;3.73;;;;;;;4.04;100.00;103044.52;1887561;76;26236;-76
2021/04/04 02:09:38;;;;;;;11.57;3.70;;;;;;;3.92;100.00;103043.79;1887455;73;26277;-75
2021/04/04 02:12:09;;;;;;;10.50;3.53;;;;;;;3.97;100.00;103038.59;1887510;76;26612;-75
2021/04/04 02:14:41;;;;;;;13.80;4.37;;;;;;;3.99;100.00;103041.47;1887546;76;26189;-73
2021/04/04 02:17:12;;;;;;;9.70;3.70;;;;;;;4.01;100.00;103036.64;1887525;76;26272;-73
2021/04/04 02:19:42;;;;;;;11.80;4.17;;;;;;;3.96;100.00;103036.87;1887438;76;26696;-74
2021/04/04 02:22:13;;;;;;;8.70;3.87;;;;;;;3.96;100.00;103036.87;1887487;76;26286;-74
2021/04/04 02:24:43;;;;;;;9.87;4.20;;;;;;;3.95;100.00;103035.16;1887541;76;26682;-74
2021/04/04 02:27:13;;;;;;;8.37;3.87;;;;;;;3.96;100.00;103028.62;1887441;76;26196;-73
2021/04/04 02:29:43;;;;;;;10.73;3.77;;;;;;;3.97;100.00;103024.32;1887572;76;26178;-73
2021/04/04 02:32:15;;;;;;;11.90;4.37;;;;;;;3.95;100.00;103018.14;1887420;76;26258;-73
2021/04/04 02:34:48;;;;;;;12.83;4.27;;;;;;;3.98;100.00;103021.05;1887462;76;26185;-73
2021/04/04 02:37:18;;;;;;;12.13;4.03;;;;;;;3.96;100.00;103018.48;1887543;76;26200;-73
2021/04/04 02:39:51;;;;;;;9.43;3.60;;;;;;;4.00;100.00;103017.58;1887566;76;26283;-73
2021/04/04 02:42:23;;;;;;;8.70;3.83;;;;;;;3.93;100.00;103022.13;1887439;76;26213;-73
2021/04/04 02:44:55;;;;;;;10.47;4.37;;;;;;;3.96;100.00;103017.11;1887383;76;26646;-73
2021/04/04 02:47:29;;;;;;;12.30;4.07;;;;;;;4.05;100.00;103009.62;1887559;76;26189;-74
2021/04/04 02:50:01;;;;;;;12.37;4.10;;;;;;;4.03;100.00;103007.56;1887600;76;26307;-73
2021/04/04 02:52:34;;;;;;;9.27;4.20;;;;;;;4.48;100.00;103008.73;1887492;76;26188;-74
2021/04/04 02:55:06;;;;;;;12.70;4.53;;;;;;;4.22;100.00;103009.76;1887708;76;26657;-74
2021/04/04 02:57:38;;;;;;;10.17;3.57;;;;;;;3.98;100.00;103010.05;1887432;76;26286;-73
2021/04/04 03:00:11;;;;;;;10.97;3.87;;;;;;;3.95;100.00;103009.03;1887427;76;26398;-73
2021/04/04 03:02:43;;;;;;;10.40;4.10;;;;;;;3.88;100.00;103016.34;1887409;76;26229;-73
2021/04/04 03:05:13;;;;;;;8.40;4.17;;;;;;;3.86;100.00;103017.03;1887453;76;26188;-73
2021/04/04 03:07:46;;;;;;;8.17;3.73;;;;;;;3.91;100.00;103017.33;1887421;76;26617;-74
2021/04/04 03:10:16;;;;;;;10.83;4.43;;;;;;;3.91;100.00;103015.44;1887520;73;26692;-73
2021/04/04 03:12:49;;;;;;;11.43;3.83;;;;;;;3.89;100.00;103009.80;1887382;76;26624;-74
2021/04/04 03:15:19;;;;;;;9.13;4.33;;;;;;;3.88;100.00;103013.07;1887421;76;26228;-73
2021/04/04 03:17:52;;;;;;;9.70;3.30;;;;;;;3.79;100.00;103011.96;1887312;76;26279;-73
2021/04/04 03:20:23;;;;;;;13.20;4.30;;;;;;;4.07;100.00;103013.02;1887448;76;26181;-74
2021/04/04 03:22:55;;;;;;;12.13;3.73;;;;;;;4.28;100.00;103008.98;1887497;76;26321;-73
2021/04/04 03:25:27;;;;;;;11.80;4.17;;;;;;;4.26;100.00;103014.34;1887488;76;26190;-76
2021/04/04 03:28:00;;;;;;;10.77;3.83;;;;;;;4.26;100.00;103011.08;1887398;76;26259;-73
2021/04/04 03:30:42;;;;;;;11.00;3.80;;;;;;;3.96;100.00;103010.23;1887374;76;26687;-73
2021/04/04 03:33:09;;;;;;;10.50;3.93;;;;;;;3.77;100.00;103008.02;1886681;76;26654;-74
2021/04/04 03:35:40;;;;;;;12.87;4.13;;;;;;;3.72;100.00;103016.00;1887388;76;26694;-74
2021/04/04 03:38:11;;;;;;;15.80;4.17;;;;;;;3.62;100.00;103015.41;1887342;76;26205;-74
2021/04/04 03:40:43;;;;;;;14.60;4.67;;;;;;;4.02;100.00;103016.33;1887346;76;26213;-74
2021/04/04 03:43:15;;;;;;;9.17;4.00;;;;;;;4.15;100.00;103018.42;1887476;76;26216;-74
2021/04/04 03:45:46;;;;;;;11.40;4.00;;;;;;;4.07;100.00;103022.13;1887485;76;26262;-74
2021/04/04 03:48:16;;;;;;;9.27;3.60;;;;;;;4.10;100.00;103025.03;1887499;76;26628;-73
2021/04/04 03:51:06;;;;;;;11.40;4.87;;;;;;;4.17;100.00;103019.09;1807929;78;33194;-75
2021/04/04 03:53:38;;;;;;;14.30;4.50;;;;;;;4.38;100.00;103016.94;1818187;78;26231;-73
2021/04/04 03:56:11;;;;;;;11.33;3.87;;;;;;;4.01;100.00;103009.66;1821425;79;26218;-74
2021/04/04 03:58:41;;;;;;;9.10;3.50;;;;;;;4.15;100.00;103014.30;1821395;79;26748;-75
2021/04/04 04:01:14;;;;;;;11.37;3.60;;;;;;;4.04;100.00;103014.27;1809629;79;930701;-75
2021/04/04 04:03:45;;;;;;;10.13;3.57;;;;;;;4.10;100.00;103009.39;1821381;79;26344;-75
2021/04/04 04:06:16;;;;;;;11.20;3.67;;;;;;;4.14;100.00;103012.61;1821423;79;26301;-74
2021/04/04 04:08:48;;;;;;;9.90;4.00;;;;;;;4.03;100.00;103012.55;1821419;79;26282;-72
2021/04/04 04:11:19;;;;;;;13.33;3.70;;;;;;;3.89;100.00;103018.91;1821315;77;26342;-75
2021/04/04 04:13:50;;;;;;;10.07;3.80;;;;;;;3.97;100.00;103014.70;1821492;79;26243;-74
2021/04/04 04:16:19;;;;;;;14.17;3.50;;;;;;;4.01;100.00;103007.77;1821552;79;26321;-74
2021/04/04 04:18:50;;;;;;;9.53;4.03;;;;;;;3.91;100.00;103008.56;1821399;79;26748;-74
2021/04/04 04:21:20;;;;;;;11.07;3.60;;;;;;;4.10;100.00;103009.91;1826211;76;26230;-74
2021/04/04 04:23:51;;;;;;;12.50;4.23;;;;;;;4.21;100.00;102998.41;1890449;76;26286;-75
2021/04/04 04:26:22;;;;;;;13.17;4.60;;;;;;;4.38;100.00;102995.79;1890575;76;26204;-75
2021/04/04 04:28:52;;;;;;;12.77;3.83;;;;;;;4.51;100.00;103000.61;1888625;76;26348;-74
2021/04/04 04:31:25;;;;;;;10.33;3.80;;;;;;;4.53;100.00;102993.02;1887587;76;26692;-75
2021/04/04 04:33:57;;;;;;;9.80;3.83;;;;;;;4.54;100.00;102987.31;1887598;76;26258;-75
2021/04/04 04:36:30;;;;;;;13.80;5.40;;;;;;;4.62;100.00;102989.64;1887566;76;26675;-75
2021/04/04 04:39:00;;;;;;;16.37;4.50;;;;;;;4.62;100.00;102981.38;1887530;76;26244;-75
2021/04/04 04:41:34;;;;;;;7.37;3.47;;;;;;;4.61;100.00;102982.42;1887501;76;26182;-74
2021/04/04 04:44:07;;;;;;;10.93;4.13;;;;;;;4.61;100.00;102986.02;1887544;76;26275;-74
2021/04/04 04:46:38;;;;;;;11.20;4.43;;;;;;;4.72;100.00;102972.27;1887443;76;26201;-74
2021/04/04 04:49:09;;;;;;;10.37;3.30;;;;;;;4.59;100.00;102977.09;1887490;76;26189;-75
2021/04/04 04:51:39;;;;;;;12.17;4.00;;;;;;;4.68;100.00;102977.83;1887440;76;26477;-74
2021/04/04 04:54:10;;;;;;;11.40;3.73;;;;;;;4.63;100.00;102977.55;1887580;76;26236;-75
2021/04/04 04:56:41;;;;;;;13.33;4.47;;;;;;;4.52;100.00;102972.05;1887543;76;26640;-74
2021/04/04 04:59:12;;;;;;;12.20;4.83;;;;;;;4.51;100.00;102973.94;1887539;76;26267;-75
2021/04/04 05:01:46;;;;;;;11.60;3.60;;;;;;;4.62;100.00;102971.74;1887569;76;26305;-75
2021/04/04 05:04:16;;;;;;;14.13;4.07;;;;;;;4.62;100.00;102971.19;1887420;76;26730;-75
2021/04/04 05:06:48;;;;;;;15.17;4.63;;;;;;;4.71;100.00;102970.55;1887557;76;26197;-75
2021/04/04 05:09:20;;;;;;;9.23;3.93;;;;;;;4.68;100.00;102968.20;1890672;76;26277;-74
2021/04/04 05:11:53;;;;;;;8.07;3.60;;;;;;;4.71;100.00;102967.80;1890580;74;26346;-74
2021/04/04 05:14:22;;;;;;;11.70;4.40;;;;;;;4.70;100.00;102964.22;1890668;76;26217;-74
2021/04/04 05:16:54;;;;;;;8.03;3.30;;;;;;;4.67;100.00;102970.61;1890650;76;26197;-74
2021/04/04 05:19:24;;;;;;;7.43;3.47;;;;;;;4.82;100.00;102972.29;1889047;76;26211;-74
2021/04/04 05:21:55;;;;;;;9.53;4.73;;;;;;;4.73;100.00;102972.60;1887471;76;26205;-74
2021/04/04 05:24:26;;;;;;;14.03;4.20;;;;;;;4.70;100.00;102979.36;1887513;76;26286;-72
2021/04/04 05:26:56;;;;;;;10.20;3.93;;;;;;;4.62;100.00;102973.13;1887574;76;26761;-74
2021/04/04 05:29:26;;;;;;;12.60;4.03;;;;;;;4.62;100.00;102976.70;1887474;76;26189;-74
2021/04/04 05:31:58;;;;;;;12.53;4.17;;;;;;;4.65;100.00;102972.20;1887578;76;26281;-74
2021/04/04 05:34:29;;;;;;;8.93;4.07;;;;;;;4.77;100.00;102976.14;1887467;76;26267;-73
2021/04/04 05:37:01;;;;;;;14.10;4.53;;;;;;;4.78;100.00;102972.36;1887487;76;26280;-74
2021/04/04 05:39:33;;;;;;;10.63;4.67;;;;;;;4.84;100.00;102976.20;1887433;76;26206;-74
2021/04/04 05:42:04;;;;;;;11.50;4.00;;;;;;;4.70;100.00;102975.75;1887603;76;26200;-74
2021/04/04 05:44:37;;;;;;;8.87;4.00;;;;;;;4.93;100.00;102975.03;1887433;76;26210;-74
2021/04/04 05:47:10;;;;;;;7.70;3.80;;;;;;;4.87;100.00;102975.83;1887487;76;26270;-75
2021/04/04 05:49:50;;;;;;;9.53;4.03;;;;;;;4.70;100.00;102975.23;1887523;76;26301;-75
2021/04/04 05:52:31;;;;;;;10.10;3.53;;;;;;;4.65;100.00;102978.23;1887482;76;26229;-73
2021/04/04 05:55:36;;;;;;;14.00;4.07;;;;;;;4.83;100.00;102970.39;1887807;76;26331;-73
2021/04/04 05:58:09;;;;;;;12.70;3.83;;;;;;;4.78;100.00;102963.23;1815608;78;26686;-74
2021/04/04 06:00:41;;;;;;;15.37;3.90;;;;;;;4.96;100.00;102965.84;1846065;78;26318;-74
2021/04/04 06:03:44;;;;;;;8.73;4.13;;;;;;;4.88;100.00;102963.23;1813948;79;26682;-73
2021/04/04 06:06:55;;;;;;;11.77;3.87;;;;;;;4.93;100.00;102962.64;1846249;77;26692;-73
2021/04/04 06:09:52;;;;;;;11.13;4.53;;;;;;;4.90;100.00;102963.05;1806399;79;26604;-74
2021/04/04 06:12:26;;;;;;;13.63;4.10;;;;;;;4.93;100.00;102962.64;1878882;74;26249;-74
2021/04/04 06:15:07;;;;;;;7.37;3.77;;;;;;;4.96;100.00;102972.73;1887508;76;26224;-74
2021/04/04 06:17:41;;;;;;;11.60;4.50;;;;;;;4.93;100.00;102960.74;1887561;76;26690;-73
2021/04/04 06:20:21;;;;;;;13.93;4.17;;;;;;;4.93;100.00;102953.00;1887461;76;26216;-75
2021/04/04 06:22:52;;;;;;;5.93;2.80;;;;;;;5.01;100.00;102954.24;1887461;76;26210;-73
2021/04/04 06:25:32;;;;;;;11.13;4.43;;;;;;;4.95;100.00;102959.18;1887535;76;26631;-73
2021/04/04 06:28:07;;;;;;;11.37;4.13;;;;;;;5.07;100.00;102956.22;1887734;76;26353;-72
2021/04/04 06:30:46;;;;;;;11.20;3.63;;;;;;;4.98;100.00;102956.88;1887695;76;26332;-72
2021/04/04 06:33:20;;;;;;;13.23;3.63;;;;;;;5.21;100.00;102953.92;1874943;76;26226;-72
2021/04/04 06:36:11;;;;;;;11.63;4.70;;;;;;;5.08;100.00;102951.05;1891457;76;26608;-72
2021/04/04 06:39:03;;;;;;;10.37;3.67;;;;;;;5.16;100.00;102952.28;1887706;76;26692;-74
2021/04/04 06:42:00;;;;;;;13.13;3.53;;;;;;;5.02;100.00;102946.31;1887532;76;26177;-74
2021/04/04 06:44:44;;;;;;;9.93;4.30;;;;;;;5.28;100.00;102941.05;1887585;76;26694;-72
2021/04/04 06:47:19;;;;;;;13.40;3.90;;;;;;;5.25;100.00;102940.59;1887805;76;26219;-73
2021/04/04 06:49:56;;;;;;;14.00;4.10;;;;;;;5.32;100.00;102934.61;1887531;76;26597;-73
2021/04/04 06:52:33;;;;;;;9.53;4.20;;;;;;;5.42;100.00;102926.85;1887831;76;26258;-75
2021/04/04 06:55:08;;;;;;;10.83;4.20;;;;;;;5.60;100.00;102924.97;1887628;76;26200;-72
2021/04/04 06:57:51;;;;;;;12.47;3.97;;;;;;;5.58;100.00;102924.30;1876867;76;26628;-74
2021/04/04 07:00:25;;;;;;;12.47;3.80;;;;;;;5.52;100.00;102917.68;1894284;75;26212;-74
2021/04/04 07:03:01;;;;;;;9.57;3.70;;;;;;;5.52;100.00;102918.23;1889286;76;26245;-74
2021/04/04 07:05:33;;;;;;;11.80;4.10;;;;;;;5.55;100.00;102913.17;1887898;76;26299;-74
2021/04/04 07:08:31;;;;;;;17.37;3.97;;;;;;;5.60;100.00;102912.56;1887505;76;26271;-74
2021/04/04 07:11:25;;;;;;;9.90;4.13;;;;;;;5.63;100.00;102906.64;1887678;76;26543;-74
2021/04/04 07:14:13;;;;;;;11.17;4.00;;;;;;;5.71;100.00;102906.47;1887548;75;26663;-73
2021/04/04 07:17:50;;;;;;;10.67;3.43;;;;;;;5.78;100.00;102898.55;1887743;76;26244;-72
2021/04/04 07:20:27;;;;;;;12.93;3.57;;;;;;;5.87;100.00;102897.37;1869910;76;26251;-74
2021/04/04 07:23:30;;;;;;;9.93;3.27;;;;;;;5.89;100.00;102891.14;1887771;76;26654;-74
2021/04/04 07:26:04;;;;;;;8.63;3.40;;;;;;;5.90;100.00;102895.57;1887579;76;26672;-74
2021/04/04 07:28:51;;;;;;;13.73;5.37;;;;;;;5.89;100.00;102898.56;1887426;76;26267;-74
2021/04/04 07:31:26;;;;;;;12.90;4.03;;;;;;;6.12;100.00;102889.97;1887597;76;26242;-73
2021/04/04 07:33:59;;;;;;;9.47;3.47;;;;;;;6.10;100.00;102892.92;1871258;76;26304;-74
2021/04/04 07:36:34;;;;;;;10.30;3.87;;;;;;;6.19;100.00;102897.21;1887717;76;26246;-74
2021/04/04 07:39:08;;;;;;;13.97;3.60;;;;;;;6.22;100.00;102887.13;1887672;76;26189;-72
2021/04/04 07:41:41;;;;;;;8.37;3.40;;;;;;;6.27;100.00;102897.02;1887483;76;26247;-73
2021/04/04 07:44:17;;;;;;;15.60;3.70;;;;;;;6.30;100.00;102896.60;1887537;76;26270;-74
2021/04/04 07:46:51;;;;;;;11.43;3.60;;;;;;;6.56;100.00;102888.92;1887461;76;26266;-74
2021/04/04 07:49:38;;;;;;;9.73;3.93;;;;;;;6.67;100.00;102882.81;1887596;76;26276;-74
2021/04/04 07:52:13;;;;;;;12.90;4.00;;;;;;;6.63;100.00;102877.91;1887577;76;26189;-73
2021/04/04 07:54:50;;;;;;;11.60;3.57;;;;;;;6.85;100.00;102881.64;1887587;76;26271;-72
2021/04/04 07:57:25;;;;;;;10.60;3.50;;;;;;;6.92;100.00;102882.19;1887697;76;26311;-73
2021/04/04 07:59:58;;;;;;;11.90;3.53;;;;;;;7.10;100.00;102872.74;1887614;76;26713;-73
2021/04/04 08:02:32;;;;;;;9.57;4.40;;;;;;;7.19;100.00;102879.20;1887487;76;26290;-72
2021/04/04 08:05:07;;;;;;;10.60;3.97;;;;;;;7.10;100.00;102875.51;1887678;76;26311;-73
2021/04/04 08:07:44;;;;;;;15.83;4.70;;;;;;;7.17;100.00;102872.20;1887702;76;26229;-72
2021/04/04 08:10:18;;;;;;;9.47;4.47;;;;;;;7.36;100.00;102878.23;1887893;76;26303;-73
2021/04/04 08:12:52;;;;;;;9.73;4.40;;;;;;;7.33;100.00;102878.67;1887652;73;26371;-72
2021/04/04 08:15:25;;;;;;;13.20;4.90;;;;;;;7.20;100.00;102879.53;1887535;76;26294;-73
2021/04/04 08:17:56;;;;;;;11.17;5.20;;;;;;;7.31;100.00;102873.38;1887479;76;26189;-72
2021/04/04 08:20:29;;;;;;;9.37;5.10;;;;;;;7.54;100.00;102865.13;1887520;76;26302;-72
2021/04/04 08:23:04;;;;;;;7.83;4.40;;;;;;;7.62;100.00;102861.59;1887670;76;26628;-72
2021/04/04 08:25:40;;;;;;;13.53;4.27;;;;;;;7.85;100.00;102854.72;1887566;76;26271;-71
2021/04/04 08:28:14;;;;;;;10.53;4.63;;;;;;;7.71;100.00;102852.53;1887642;76;26255;-74
2021/04/04 08:30:48;;;;;;;12.00;5.33;;;;;;;8.09;100.00;102846.52;1887554;76;26279;-72
2021/04/04 08:33:21;;;;;;;14.63;5.57;;;;;;;8.20;100.00;102844.47;1887685;76;26255;-73
2021/04/04 08:35:57;;;;;;;12.97;4.87;;;;;;;8.08;100.00;102853.69;1887507;76;26280;-72
2021/04/04 08:38:31;;;;;;;16.37;5.87;;;;;;;8.16;100.00;102854.28;1887494;76;26196;-72
2021/04/04 08:41:03;;;;;;;15.40;5.70;;;;;;;8.28;100.00;102851.66;1887568;76;26181;-73
2021/04/04 08:43:34;;;;;;;12.77;6.77;;;;;;;8.61;100.00;102854.25;1887650;76;26579;-72
2021/04/04 08:46:10;;;;;;;15.97;7.10;;;;;;;8.68;100.00;102850.35;1887675;76;26271;-73
2021/04/04 08:48:41;;;;;;;17.97;7.70;;;;;;;8.88;100.00;102848.84;1846152;77;26172;-72
2021/04/04 08:51:14;;;;;;;14.00;6.40;;;;;;;8.46;100.00;102844.88;1814045;79;26207;-72
2021/04/04 08:53:46;;;;;;;12.93;7.23;;;;;;;8.54;100.00;102837.69;1845845;78;26235;-73
2021/04/04 08:56:17;;;;;;;12.67;5.87;;;;;;;8.62;100.00;102835.17;1814001;79;26215;-72
2021/04/04 08:58:51;;;;;;;15.63;6.60;;;;;;;8.80;100.00;102838.03;1845847;78;26273;-71
2021/04/04 09:01:24;;;;;;;12.20;6.20;;;;;;;8.82;100.00;102837.25;1814006;79;26282;-72
2021/04/04 09:03:58;;;;;;;12.53;5.90;;;;;;;8.55;100.00;102830.23;1845814;78;26252;-72
2021/04/04 09:06:36;;;;;;;13.10;6.10;;;;;;;8.89;100.00;102832.53;1813939;79;26669;-72
2021/04/04 09:09:18;;;;;;;16.13;6.57;;;;;;;8.54;100.00;102832.68;1845925;78;26722;-73
2021/04/04 09:11:50;;;;;;;15.57;6.07;;;;;;;8.67;100.00;102825.12;1814065;79;26314;-72
2021/04/04 09:14:22;;;;;;;16.17;6.20;;;;;;;9.07;100.00;102817.31;1845756;75;26444;-72
2021/04/04 09:16:54;;;;;;;13.90;5.90;;;;;;;9.07;100.00;102818.70;1813949;79;26657;-73
2021/04/04 09:19:33;;;;;;;11.33;5.97;;;;;;;9.05;100.00;102815.86;1845873;78;26714;-72
2021/04/04 09:22:06;;;;;;;12.03;5.83;;;;;;;9.30;100.00;102813.90;1814047;79;26983;-72
2021/04/04 09:24:45;;;;;;;17.90;6.33;;;;;;;9.32;100.00;102813.68;1845888;78;26212;-72
2021/04/04 09:27:17;;;;;;;15.30;6.23;;;;;;;9.37;100.00;102804.96;1814001;79;26289;-72
2021/04/04 09:29:50;;;;;;;14.67;6.37;;;;;;;9.67;100.00;102802.27;1845814;78;26655;-72
2021/04/04 09:32:28;;;;;;;18.10;6.17;;;;;;;9.58;100.00;102803.13;1888846;76;26266;-71
2021/04/04 09:34:59;;;;;;;14.53;6.50;;;;;;;9.94;100.00;102798.09;1887579;76;26647;-72
2021/04/04 09:37:30;;;;;;;11.53;6.00;;;;;;;9.37;100.00;102793.05;1887654;76;26259;-71
2021/04/04 09:40:00;;;;;;;17.07;6.00;;;;;;;9.78;100.00;102789.56;1887565;76;26621;-71
2021/04/04 09:42:32;;;;;;;16.00;5.77;;;;;;;9.49;100.00;102780.10;1887458;76;26197;-71
2021/04/04 09:45:15;;;;;;;16.37;6.07;;;;;;;9.39;100.00;102783.94;1887540;76;26205;-71
2021/04/04 09:47:46;;;;;;;12.60;5.93;;;;;;;9.48;100.00;102779.78;1887456;76;26185;-71
2021/04/04 09:50:21;;;;;;;11.33;5.80;;;;;;;9.36;100.00;102770.00;1887473;76;26177;-72
2021/04/04 09:52:52;;;;;;;12.70;5.70;;;;;;;9.82;100.00;102765.81;1887539;76;26596;-71
2021/04/04 09:55:23;;;;;;;10.43;5.63;;;;;;;9.71;100.00;102767.99;1887542;76;26204;-71
2021/04/04 09:57:55;;;;;;;15.43;6.13;;;;;;;9.74;100.00;102761.43;1887481;76;26720;-72
2021/04/04 10:00:28;;;;;;;11.43;5.13;;;;;;;9.52;100.00;102771.31;1887472;76;26652;-71
2021/04/04 10:03:00;;;;;;;15.10;6.03;;;;;;;9.41;100.00;102761.81;1887491;76;26225;-71
2021/04/04 10:05:33;;;;;;;10.27;5.97;;;;;;;9.43;100.00;102754.66;1886659;76;26193;-71
2021/04/04 10:08:14;;;;;;;12.50;5.40;;;;;;;9.50;100.00;102755.41;1887537;76;26259;-72
2021/04/04 10:10:46;;;;;;;10.37;6.00;;;;;;;9.47;100.00;102753.11;1887732;76;26185;-72
2021/04/04 10:13:18;;;;;;;12.37;6.40;;;;;;;9.73;100.00;102754.72;1887496;76;26185;-71
2021/04/04 10:15:49;;;;;;;13.53;5.93;;;;;;;9.49;100.00;102755.98;1887435;73;26240;-72
2021/04/04 10:18:21;;;;;;;13.20;6.13;;;;;;;9.70;100.00;102749.11;1887443;76;26284;-72
2021/04/04 10:20:52;;;;;;;15.37;6.30;;;;;;;9.71;100.00;102745.26;1887627;76;26633;-72
2021/04/04 10:23:28;;;;;;;12.83;6.30;;;;;;;10.11;100.00;102742.76;1887537;76;26605;-72
2021/04/04 10:26:01;;;;;;;13.87;6.70;;;;;;;10.49;100.00;102732.69;1887449;76;26272;-72
2021/04/04 10:28:44;;;;;;;12.80;6.53;;;;;;;9.98;100.00;102732.69;1887451;76;26250;-71
2021/04/04 10:31:15;;;;;;;10.37;5.50;;;;;;;9.91;100.00;102726.40;1887520;76;26260;-72
2021/04/04 10:33:46;;;;;;;14.07;6.60;;;;;;;10.10;100.00;102734.11;1887615;76;26685;-71
2021/04/04 10:36:18;;;;;;;18.30;6.43;;;;;;;10.16;100.00;102727.66;1887396;76;26222;-72
2021/04/04 10:38:47;;;;;;;12.67;5.90;;;;;;;10.27;100.00;102715.72;1887518;76;26205;-72
2021/04/04 10:41:27;;;;;;;16.87;6.13;;;;;;;10.09;100.00;102717.71;1887360;76;26267;-71
2021/04/04 10:43:58;;;;;;;11.90;6.10;;;;;;;10.58;100.00;102707.63;1887642;76;26368;-71
2021/04/04 10:46:31;;;;;;;14.67;6.30;;;;;;;10.74;100.00;102702.73;1887476;76;26202;-72
2021/04/04 10:49:04;;;;;;;13.57;6.13;;;;;;;10.67;100.00;102695.61;1887529;76;26194;-71
2021/04/04 10:51:34;;;;;;;19.37;7.27;;;;;;;10.65;100.00;102693.64;1887516;76;26259;-71
2021/04/04 10:54:05;;;;;;;11.63;5.33;;;;;;;11.01;100.00;102693.91;1887540;76;26197;-72
2021/04/04 10:56:36;;;;;;;15.63;6.40;;;;;;;10.78;100.00;102691.44;1887499;76;26256;-72
2021/04/04 10:59:07;;;;;;;13.10;5.93;;;;;;;11.13;100.00;102683.61;1887632;76;26263;-72
2021/04/04 11:01:37;;;;;;;6.47;3.53;;;;;;;10.79;100.00;102677.00;1887620;76;26217;-72
2021/04/04 11:04:09;;;;;;;18.20;6.07;;;;;;;11.03;100.00;102676.45;1887380;76;26244;-72
2021/04/04 11:06:39;;;;;;;12.93;5.77;;;;;;;10.98;100.00;102675.80;1887574;76;26193;-72
2021/04/04 11:09:09;;;;;;;17.13;8.20;;;;;;;10.97;100.00;102665.75;1887405;76;26592;-71
2021/04/04 11:11:41;;;;;;;14.13;6.20;;;;;;;11.08;100.00;102663.48;1887503;76;26631;-72
2021/04/04 11:14:13;;;;;;;11.20;5.40;;;;;;;10.77;100.00;102663.91;1887375;73;26200;-73
2021/04/04 11:16:43;;;;;;;19.07;7.80;;;;;;;10.54;100.00;102662.50;1887487;75;26253;-71
2021/04/04 11:19:15;;;;;;;18.40;7.27;;;;;;;10.75;100.00;102650.23;1887592;76;26197;-72
2021/04/04 11:21:46;;;;;;;9.43;5.50;;;;;;;10.89;100.00;102642.49;1887469;76;26600;-72
2021/04/04 11:24:19;;;;;;;11.93;5.43;;;;;;;10.89;100.00;102631.38;1887447;76;26236;-72
2021/04/04 11:26:55;;;;;;;25.57;7.80;;;;;;;11.16;100.00;102624.73;1887660;76;26274;-72
2021/04/04 11:29:28;;;;;;;16.20;6.53;;;;;;;11.30;100.00;102624.19;1887348;76;26600;-72
2021/04/04 11:32:01;;;;;;;13.63;5.73;;;;;;;11.58;100.00;102619.20;1887572;76;26204;-72
2021/04/04 11:34:38;;;;;;;13.93;5.73;;;;;;;11.53;100.00;102614.07;1888078;76;26201;-71
2021/04/04 11:37:18;;;;;;;17.70;5.57;;;;;;;11.64;100.00;102617.33;1887485;76;26294;-72
2021/04/04 11:40:12;;;;;;;10.57;5.20;;;;;;;11.74;100.00;102605.89;1887173;76;26176;-71
2021/04/04 11:42:43;;;;;;;17.50;5.37;;;;;;;12.01;100.00;102599.14;1887737;76;26208;-72
2021/04/04 11:45:14;;;;;;;11.53;4.90;;;;;;;11.27;100.00;102596.02;1887440;76;26296;-72
2021/04/04 11:47:44;;;;;;;14.67;5.57;;;;;;;11.50;100.00;102591.77;1887391;76;26204;-71
2021/04/04 11:50:26;;;;;;;12.93;5.47;;;;;;;11.87;100.00;102590.80;1887579;76;26189;-71